sensor_id;sensor_type;location;lat;lon;timestamp;P1;durP1;ratioP1;P2;durP2;ratioP2
795;SDS011;381;48.770;9.188;2023-06-05T00:00:01;2.83;;;2.57;;
795;SDS011;381;48.770;9.188;2023-06-05T00:05:12;3.50;;;3.20;;
795;SDS011;381;48.770;9.188;2023-06-05T00:10:15;3.57;;;3.27;;
795;SDS011;381;48.770;9.188;2023-06-05T00:15:19;3.90;;;3.60;;
795;SDS011;381;48.770;9.188;2023-06-05T00:20:21;3.20;;;2.90;;
795;SDS011;381;48.770;9.188;2023-06-05T00:25:23;3.53;;;3.23;;
795;SDS011;381;48.770;9.188;2023-06-05T00:30:27;4.00;;;3.60;;
795;SDS011;381;48.770;9.188;2023-06-05T00:35:29;4.37;;;3.97;;
795;SDS011;381;48.770;9.188;2023-06-05T00:40:31;4.17;;;3.53;;
795;SDS011;381;48.770;9.188;2023-06-05T00:45:34;3.37;;;3.07;;
795;SDS011;381;48.770;9.188;2023-06-05T00:50:36;3.27;;;3.07;;
795;SDS011;381;48.770;9.188;2023-06-05T00:55:40;3.63;;;3.27;;
795;SDS011;381;48.770;9.188;2023-06-05T01:00:43;3.40;;;3.20;;
795;SDS011;381;48.770;9.188;2023-06-05T01:05:50;3.57;;;3.27;;
795;SDS011;381;48.770;9.188;2023-06-05T01:10:52;3.83;;;3.27;;
795;SDS011;381;48.770;9.188;2023-06-05T01:15:58;3.13;;;2.93;;
795;SDS011;381;48.770;9.188;2023-06-05T01:21:04;3.60;;;3.30;;
795;SDS011;381;48.770;9.188;2023-06-05T01:26:18;3.63;;;3.37;;
795;SDS011;381;48.770;9.188;2023-06-05T01:31:26;3.50;;;3.20;;
795;SDS011;381;48.770;9.188;2023-06-05T01:36:29;3.37;;;3.17;;
795;SDS011;381;48.770;9.188;2023-06-05T01:41:34;6.03;;;4.03;;
795;SDS011;381;48.770;9.188;2023-06-05T01:46:37;4.30;;;3.90;;
795;SDS011;381;48.770;9.188;2023-06-05T01:51:41;3.10;;;2.80;;
795;SDS011;381;48.770;9.188;2023-06-05T01:56:44;4.60;;;3.37;;
795;SDS011;381;48.770;9.188;2023-06-05T02:01:48;3.93;;;3.63;;
795;SDS011;381;48.770;9.188;2023-06-05T02:06:50;3.43;;;3.13;;
795;SDS011;381;48.770;9.188;2023-06-05T02:11:54;3.40;;;3.10;;
795;SDS011;381;48.770;9.188;2023-06-05T02:16:56;3.40;;;3.20;;
795;SDS011;381;48.770;9.188;2023-06-05T02:21:59;3.67;;;3.23;;
795;SDS011;381;48.770;9.188;2023-06-05T02:27:02;3.53;;;3.33;;
795;SDS011;381;48.770;9.188;2023-06-05T02:32:05;3.63;;;3.37;;
795;SDS011;381;48.770;9.188;2023-06-05T02:37:08;4.83;;;2.90;;
795;SDS011;381;48.770;9.188;2023-06-05T02:42:13;3.47;;;3.23;;
795;SDS011;381;48.770;9.188;2023-06-05T02:47:17;4.70;;;3.40;;
795;SDS011;381;48.770;9.188;2023-06-05T02:52:19;3.60;;;3.40;;
795;SDS011;381;48.770;9.188;2023-06-05T02:57:24;3.33;;;3.13;;
795;SDS011;381;48.770;9.188;2023-06-05T03:02:27;3.63;;;3.33;;
795;SDS011;381;48.770;9.188;2023-06-05T03:07:29;3.67;;;3.37;;
795;SDS011;381;48.770;9.188;2023-06-05T03:12:36;4.07;;;3.43;;
795;SDS011;381;48.770;9.188;2023-06-05T03:17:38;4.40;;;3.90;;
795;SDS011;381;48.770;9.188;2023-06-05T03:22:42;3.57;;;3.30;;
795;SDS011;381;48.770;9.188;2023-06-05T03:27:46;4.30;;;3.90;;
795;SDS011;381;48.770;9.188;2023-06-05T03:32:48;3.87;;;3.57;;
795;SDS011;381;48.770;9.188;2023-06-05T03:37:52;4.10;;;3.70;;
795;SDS011;381;48.770;9.188;2023-06-05T03:42:56;4.07;;;3.77;;
795;SDS011;381;48.770;9.188;2023-06-05T03:47:58;4.20;;;3.90;;
795;SDS011;381;48.770;9.188;2023-06-05T03:53:02;5.63;;;4.10;;
795;SDS011;381;48.770;9.188;2023-06-05T03:58:07;3.80;;;3.60;;
795;SDS011;381;48.770;9.188;2023-06-05T04:03:14;4.53;;;4.13;;
795;SDS011;381;48.770;9.188;2023-06-05T04:08:16;6.50;;;3.80;;
795;SDS011;381;48.770;9.188;2023-06-05T04:13:20;3.90;;;3.00;;
795;SDS011;381;48.770;9.188;2023-06-05T04:18:23;4.13;;;3.83;;
795;SDS011;381;48.770;9.188;2023-06-05T04:23:28;3.57;;;3.37;;
795;SDS011;381;48.770;9.188;2023-06-05T04:28:32;3.70;;;3.40;;
795;SDS011;381;48.770;9.188;2023-06-05T04:33:35;4.37;;;4.07;;
795;SDS011;381;48.770;9.188;2023-06-05T04:38:37;3.70;;;3.40;;
795;SDS011;381;48.770;9.188;2023-06-05T04:43:41;5.10;;;3.60;;
795;SDS011;381;48.770;9.188;2023-06-05T04:48:45;4.37;;;4.07;;
795;SDS011;381;48.770;9.188;2023-06-05T04:53:47;4.13;;;3.67;;
795;SDS011;381;48.770;9.188;2023-06-05T04:58:56;4.07;;;3.67;;
795;SDS011;381;48.770;9.188;2023-06-05T05:04:00;4.40;;;4.00;;
795;SDS011;381;48.770;9.188;2023-06-05T05:09:02;3.73;;;3.40;;
795;SDS011;381;48.770;9.188;2023-06-05T05:14:06;3.83;;;3.63;;
795;SDS011;381;48.770;9.188;2023-06-05T05:19:08;3.90;;;3.60;;
795;SDS011;381;48.770;9.188;2023-06-05T05:24:11;3.93;;;3.50;;
795;SDS011;381;48.770;9.188;2023-06-05T05:29:14;3.63;;;3.37;;
795;SDS011;381;48.770;9.188;2023-06-05T05:34:18;6.10;;;3.47;;
795;SDS011;381;48.770;9.188;2023-06-05T05:39:20;4.40;;;4.00;;
795;SDS011;381;48.770;9.188;2023-06-05T05:44:23;4.30;;;3.90;;
795;SDS011;381;48.770;9.188;2023-06-05T05:49:25;6.60;;;3.63;;
795;SDS011;381;48.770;9.188;2023-06-05T05:54:27;3.63;;;3.33;;
795;SDS011;381;48.770;9.188;2023-06-05T05:59:31;4.00;;;3.70;;
795;SDS011;381;48.770;9.188;2023-06-05T06:04:33;4.03;;;3.40;;
795;SDS011;381;48.770;9.188;2023-06-05T06:09:35;3.20;;;2.90;;
795;SDS011;381;48.770;9.188;2023-06-05T06:14:40;3.43;;;3.20;;
795;SDS011;381;48.770;9.188;2023-06-05T06:19:42;4.90;;;3.77;;
795;SDS011;381;48.770;9.188;2023-06-05T06:24:44;4.23;;;3.60;;
795;SDS011;381;48.770;9.188;2023-06-05T06:29:48;5.70;;;3.80;;
795;SDS011;381;48.770;9.188;2023-06-05T06:34:52;3.90;;;3.57;;
795;SDS011;381;48.770;9.188;2023-06-05T06:39:55;5.63;;;3.80;;
795;SDS011;381;48.770;9.188;2023-06-05T06:44:59;4.03;;;3.73;;
795;SDS011;381;48.770;9.188;2023-06-05T06:50:01;4.33;;;3.90;;
795;SDS011;381;48.770;9.188;2023-06-05T06:55:03;4.87;;;4.20;;
795;SDS011;381;48.770;9.188;2023-06-05T07:00:09;4.10;;;3.80;;
795;SDS011;381;48.770;9.188;2023-06-05T07:05:13;7.57;;;4.07;;
795;SDS011;381;48.770;9.188;2023-06-05T07:10:15;3.20;;;2.97;;
795;SDS011;381;48.770;9.188;2023-06-05T07:15:19;5.33;;;3.83;;
795;SDS011;381;48.770;9.188;2023-06-05T07:20:21;3.70;;;3.40;;
795;SDS011;381;48.770;9.188;2023-06-05T07:25:24;4.10;;;3.80;;
795;SDS011;381;48.770;9.188;2023-06-05T07:30:27;4.43;;;4.13;;
795;SDS011;381;48.770;9.188;2023-06-05T07:35:29;3.77;;;3.40;;
795;SDS011;381;48.770;9.188;2023-06-05T07:40:32;4.70;;;4.03;;
795;SDS011;381;48.770;9.188;2023-06-05T07:45:36;4.13;;;3.70;;
795;SDS011;381;48.770;9.188;2023-06-05T07:50:38;4.50;;;4.20;;
795;SDS011;381;48.770;9.188;2023-06-05T07:55:41;6.57;;;4.67;;
795;SDS011;381;48.770;9.188;2023-06-05T08:00:44;4.90;;;4.23;;
795;SDS011;381;48.770;9.188;2023-06-05T08:05:48;4.57;;;4.17;;
795;SDS011;381;48.770;9.188;2023-06-05T08:10:51;5.23;;;4.67;;
795;SDS011;381;48.770;9.188;2023-06-05T08:15:54;6.00;;;4.80;;
795;SDS011;381;48.770;9.188;2023-06-05T08:20:57;6.50;;;4.17;;
795;SDS011;381;48.770;9.188;2023-06-05T08:25:59;5.73;;;4.20;;
795;SDS011;381;48.770;9.188;2023-06-05T08:31:02;5.97;;;4.63;;
795;SDS011;381;48.770;9.188;2023-06-05T08:36:06;7.50;;;4.90;;
795;SDS011;381;48.770;9.188;2023-06-05T08:41:08;5.53;;;4.80;;
795;SDS011;381;48.770;9.188;2023-06-05T08:46:12;4.80;;;4.30;;
795;SDS011;381;48.770;9.188;2023-06-05T08:51:17;7.70;;;4.17;;
795;SDS011;381;48.770;9.188;2023-06-05T08:56:19;5.77;;;5.17;;
795;SDS011;381;48.770;9.188;2023-06-05T09:01:24;6.73;;;5.80;;
795;SDS011;381;48.770;9.188;2023-06-05T09:06:26;6.27;;;4.10;;
795;SDS011;381;48.770;9.188;2023-06-05T09:11:29;5.63;;;4.80;;
795;SDS011;381;48.770;9.188;2023-06-05T09:16:35;5.40;;;4.90;;
795;SDS011;381;48.770;9.188;2023-06-05T09:21:38;4.73;;;4.27;;
795;SDS011;381;48.770;9.188;2023-06-05T09:26:52;5.57;;;5.07;;
795;SDS011;381;48.770;9.188;2023-06-05T09:31:58;7.03;;;4.80;;
795;SDS011;381;48.770;9.188;2023-06-05T09:37:01;6.00;;;4.60;;
795;SDS011;381;48.770;9.188;2023-06-05T09:42:04;4.83;;;4.43;;
795;SDS011;381;48.770;9.188;2023-06-05T09:47:10;4.27;;;3.97;;
795;SDS011;381;48.770;9.188;2023-06-05T09:52:13;6.33;;;4.23;;
795;SDS011;381;48.770;9.188;2023-06-05T09:57:15;4.70;;;4.30;;
795;SDS011;381;48.770;9.188;2023-06-05T10:02:20;5.20;;;4.80;;
795;SDS011;381;48.770;9.188;2023-06-05T10:07:24;4.83;;;4.40;;
795;SDS011;381;48.770;9.188;2023-06-05T10:12:27;4.60;;;4.20;;
795;SDS011;381;48.770;9.188;2023-06-05T10:17:33;4.70;;;4.30;;
795;SDS011;381;48.770;9.188;2023-06-05T10:22:36;4.70;;;4.30;;
795;SDS011;381;48.770;9.188;2023-06-05T10:27:50;4.37;;;4.07;;
795;SDS011;381;48.770;9.188;2023-06-05T10:33:05;4.10;;;3.83;;
795;SDS011;381;48.770;9.188;2023-06-05T10:38:19;4.50;;;4.10;;
795;SDS011;381;48.770;9.188;2023-06-05T10:43:28;4.03;;;3.80;;
795;SDS011;381;48.770;9.188;2023-06-05T11:00:04;4.10;;;3.70;;
795;SDS011;381;48.770;9.188;2023-06-05T11:05:12;4.20;;;3.90;;
795;SDS011;381;48.770;9.188;2023-06-05T11:10:16;4.90;;;4.50;;
795;SDS011;381;48.770;9.188;2023-06-05T11:15:34;4.37;;;4.07;;
795;SDS011;381;48.770;9.188;2023-06-05T11:20:51;5.17;;;4.00;;
795;SDS011;381;48.770;9.188;2023-06-05T11:25:54;3.90;;;3.60;;
795;SDS011;381;48.770;9.188;2023-06-05T11:31:01;5.80;;;3.83;;
795;SDS011;381;48.770;9.188;2023-06-05T11:36:05;4.10;;;3.80;;
795;SDS011;381;48.770;9.188;2023-06-05T11:41:09;4.70;;;4.30;;
795;SDS011;381;48.770;9.188;2023-06-05T11:46:11;4.27;;;3.90;;
795;SDS011;381;48.770;9.188;2023-06-05T11:51:15;3.90;;;3.60;;
795;SDS011;381;48.770;9.188;2023-06-05T11:56:17;4.60;;;4.20;;
795;SDS011;381;48.770;9.188;2023-06-05T12:01:19;5.30;;;4.80;;
795;SDS011;381;48.770;9.188;2023-06-05T12:06:24;4.33;;;3.93;;
795;SDS011;381;48.770;9.188;2023-06-05T12:11:27;5.03;;;3.40;;
795;SDS011;381;48.770;9.188;2023-06-05T12:16:30;4.40;;;4.00;;
795;SDS011;381;48.770;9.188;2023-06-05T12:21:34;4.90;;;4.40;;
795;SDS011;381;48.770;9.188;2023-06-05T12:26:49;4.40;;;4.03;;
795;SDS011;381;48.770;9.188;2023-06-05T12:31:54;4.67;;;4.20;;
795;SDS011;381;48.770;9.188;2023-06-05T12:36:58;4.27;;;3.97;;
795;SDS011;381;48.770;9.188;2023-06-05T12:42:00;3.93;;;3.60;;
795;SDS011;381;48.770;9.188;2023-06-05T12:47:02;5.40;;;3.93;;
795;SDS011;381;48.770;9.188;2023-06-05T12:52:07;4.57;;;4.27;;
795;SDS011;381;48.770;9.188;2023-06-05T12:57:10;6.03;;;3.83;;
795;SDS011;381;48.770;9.188;2023-06-05T13:02:12;4.03;;;3.73;;
795;SDS011;381;48.770;9.188;2023-06-05T13:07:15;4.97;;;4.57;;
795;SDS011;381;48.770;9.188;2023-06-05T13:12:18;4.60;;;4.30;;
795;SDS011;381;48.770;9.188;2023-06-05T13:17:20;4.97;;;4.17;;
795;SDS011;381;48.770;9.188;2023-06-05T13:22:24;4.50;;;4.20;;
795;SDS011;381;48.770;9.188;2023-06-05T13:27:27;8.00;;;4.57;;
795;SDS011;381;48.770;9.188;2023-06-05T13:32:29;4.73;;;4.33;;
795;SDS011;381;48.770;9.188;2023-06-05T13:37:34;4.83;;;4.20;;
795;SDS011;381;48.770;9.188;2023-06-05T13:42:36;5.47;;;4.90;;
795;SDS011;381;48.770;9.188;2023-06-05T13:47:38;5.00;;;4.60;;
795;SDS011;381;48.770;9.188;2023-06-05T13:52:42;4.30;;;4.00;;
795;SDS011;381;48.770;9.188;2023-06-05T13:57:44;4.70;;;4.30;;
795;SDS011;381;48.770;9.188;2023-06-05T14:02:46;4.77;;;4.37;;
795;SDS011;381;48.770;9.188;2023-06-05T14:07:50;4.90;;;4.50;;
795;SDS011;381;48.770;9.188;2023-06-05T14:12:53;5.90;;;3.87;;
795;SDS011;381;48.770;9.188;2023-06-05T14:17:55;5.27;;;4.60;;
795;SDS011;381;48.770;9.188;2023-06-05T14:22:59;6.53;;;5.23;;
795;SDS011;381;48.770;9.188;2023-06-05T14:28:02;5.93;;;5.40;;
795;SDS011;381;48.770;9.188;2023-06-05T14:33:04;4.93;;;4.53;;
795;SDS011;381;48.770;9.188;2023-06-05T14:38:08;4.80;;;4.30;;
795;SDS011;381;48.770;9.188;2023-06-05T14:43:12;4.17;;;3.87;;
795;SDS011;381;48.770;9.188;2023-06-05T14:48:15;4.90;;;4.33;;
795;SDS011;381;48.770;9.188;2023-06-05T14:53:19;4.80;;;4.37;;
795;SDS011;381;48.770;9.188;2023-06-05T14:58:21;5.07;;;4.57;;
795;SDS011;381;48.770;9.188;2023-06-05T15:03:23;4.37;;;4.00;;
795;SDS011;381;48.770;9.188;2023-06-05T15:08:27;4.93;;;4.53;;
795;SDS011;381;48.770;9.188;2023-06-05T15:13:29;4.87;;;4.37;;
795;SDS011;381;48.770;9.188;2023-06-05T15:18:31;4.10;;;3.80;;
795;SDS011;381;48.770;9.188;2023-06-05T15:23:35;3.93;;;3.63;;
795;SDS011;381;48.770;9.188;2023-06-05T15:28:37;3.73;;;3.43;;
795;SDS011;381;48.770;9.188;2023-06-05T15:33:39;4.40;;;4.10;;
795;SDS011;381;48.770;9.188;2023-06-05T15:38:43;3.10;;;2.90;;
795;SDS011;381;48.770;9.188;2023-06-05T15:43:45;3.70;;;3.40;;
795;SDS011;381;48.770;9.188;2023-06-05T15:48:47;3.90;;;3.60;;
795;SDS011;381;48.770;9.188;2023-06-05T15:53:51;5.97;;;4.10;;
795;SDS011;381;48.770;9.188;2023-06-05T15:58:56;5.00;;;3.90;;
795;SDS011;381;48.770;9.188;2023-06-05T16:03:58;3.90;;;3.70;;
795;SDS011;381;48.770;9.188;2023-06-05T16:09:01;4.07;;;3.77;;
795;SDS011;381;48.770;9.188;2023-06-05T16:14:05;4.47;;;4.00;;
795;SDS011;381;48.770;9.188;2023-06-05T16:19:07;4.20;;;3.90;;
795;SDS011;381;48.770;9.188;2023-06-05T16:24:11;4.17;;;3.87;;
795;SDS011;381;48.770;9.188;2023-06-05T16:29:13;5.90;;;4.40;;
795;SDS011;381;48.770;9.188;2023-06-05T16:34:16;5.57;;;3.77;;
795;SDS011;381;48.770;9.188;2023-06-05T16:39:19;4.40;;;3.40;;
795;SDS011;381;48.770;9.188;2023-06-05T16:44:22;4.00;;;3.70;;
795;SDS011;381;48.770;9.188;2023-06-05T16:49:24;5.00;;;3.93;;
795;SDS011;381;48.770;9.188;2023-06-05T16:54:31;4.33;;;3.97;;
795;SDS011;381;48.770;9.188;2023-06-05T16:59:33;4.50;;;4.13;;
795;SDS011;381;48.770;9.188;2023-06-05T17:04:36;4.10;;;3.80;;
795;SDS011;381;48.770;9.188;2023-06-05T17:09:39;7.30;;;4.17;;
795;SDS011;381;48.770;9.188;2023-06-05T17:14:42;3.60;;;3.40;;
795;SDS011;381;48.770;9.188;2023-06-05T17:19:44;5.77;;;4.87;;
795;SDS011;381;48.770;9.188;2023-06-05T17:24:48;4.70;;;4.30;;
795;SDS011;381;48.770;9.188;2023-06-05T17:29:50;5.57;;;4.10;;
795;SDS011;381;48.770;9.188;2023-06-05T17:34:52;4.60;;;4.13;;
795;SDS011;381;48.770;9.188;2023-06-05T17:39:55;4.20;;;3.87;;
795;SDS011;381;48.770;9.188;2023-06-05T17:44:57;4.50;;;4.10;;
795;SDS011;381;48.770;9.188;2023-06-05T17:50:00;4.60;;;4.20;;
795;SDS011;381;48.770;9.188;2023-06-05T17:55:04;4.93;;;4.10;;
795;SDS011;381;48.770;9.188;2023-06-05T18:00:07;4.70;;;4.40;;
795;SDS011;381;48.770;9.188;2023-06-05T18:05:14;6.20;;;5.70;;
795;SDS011;381;48.770;9.188;2023-06-05T18:10:18;5.97;;;5.47;;
795;SDS011;381;48.770;9.188;2023-06-05T18:15:21;5.67;;;5.07;;
795;SDS011;381;48.770;9.188;2023-06-05T18:20:24;7.73;;;4.97;;
795;SDS011;381;48.770;9.188;2023-06-05T18:25:28;4.87;;;4.53;;
795;SDS011;381;48.770;9.188;2023-06-05T18:30:30;5.57;;;5.07;;
795;SDS011;381;48.770;9.188;2023-06-05T18:35:33;4.50;;;4.10;;
795;SDS011;381;48.770;9.188;2023-06-05T18:40:36;5.17;;;4.33;;
795;SDS011;381;48.770;9.188;2023-06-05T18:45:39;5.37;;;4.87;;
795;SDS011;381;48.770;9.188;2023-06-05T18:50:41;4.70;;;4.30;;
795;SDS011;381;48.770;9.188;2023-06-05T18:55:45;5.03;;;4.60;;
795;SDS011;381;48.770;9.188;2023-06-05T19:00:47;5.20;;;4.70;;
795;SDS011;381;48.770;9.188;2023-06-05T19:05:52;5.80;;;4.07;;
795;SDS011;381;48.770;9.188;2023-06-05T19:10:55;5.60;;;5.10;;
795;SDS011;381;48.770;9.188;2023-06-05T19:15:58;5.50;;;4.20;;
795;SDS011;381;48.770;9.188;2023-06-05T19:21:00;5.43;;;4.50;;
795;SDS011;381;48.770;9.188;2023-06-05T19:26:06;4.40;;;4.10;;
795;SDS011;381;48.770;9.188;2023-06-05T19:31:08;4.53;;;4.23;;
795;SDS011;381;48.770;9.188;2023-06-05T19:36:10;5.17;;;4.67;;
795;SDS011;381;48.770;9.188;2023-06-05T19:41:14;4.37;;;3.97;;
795;SDS011;381;48.770;9.188;2023-06-05T19:46:17;4.43;;;4.13;;
795;SDS011;381;48.770;9.188;2023-06-05T19:51:19;5.53;;;5.07;;
795;SDS011;381;48.770;9.188;2023-06-05T19:56:23;4.90;;;4.50;;
795;SDS011;381;48.770;9.188;2023-06-05T20:01:26;4.53;;;4.23;;
795;SDS011;381;48.770;9.188;2023-06-05T20:06:28;5.43;;;4.90;;
795;SDS011;381;48.770;9.188;2023-06-05T20:22:06;5.50;;;5.00;;
795;SDS011;381;48.770;9.188;2023-06-05T20:27:09;5.30;;;4.90;;
795;SDS011;381;48.770;9.188;2023-06-05T20:32:13;5.10;;;4.50;;
795;SDS011;381;48.770;9.188;2023-06-05T20:37:25;4.90;;;4.60;;
795;SDS011;381;48.770;9.188;2023-06-05T20:42:30;4.77;;;4.47;;
795;SDS011;381;48.770;9.188;2023-06-05T20:47:34;4.87;;;4.57;;
795;SDS011;381;48.770;9.188;2023-06-05T20:52:43;7.20;;;4.83;;
795;SDS011;381;48.770;9.188;2023-06-05T20:57:47;5.60;;;4.73;;
795;SDS011;381;48.770;9.188;2023-06-05T21:02:50;4.90;;;4.50;;
795;SDS011;381;48.770;9.188;2023-06-05T21:07:55;3.90;;;3.70;;
795;SDS011;381;48.770;9.188;2023-06-05T21:12:58;3.93;;;3.73;;
795;SDS011;381;48.770;9.188;2023-06-05T21:18:00;3.83;;;3.53;;
795;SDS011;381;48.770;9.188;2023-06-05T21:23:04;4.10;;;3.80;;
795;SDS011;381;48.770;9.188;2023-06-05T21:28:07;3.40;;;3.20;;
795;SDS011;381;48.770;9.188;2023-06-05T21:33:18;3.50;;;3.30;;
795;SDS011;381;48.770;9.188;2023-06-05T21:38:23;3.80;;;3.13;;
795;SDS011;381;48.770;9.188;2023-06-05T21:43:27;6.00;;;3.13;;
795;SDS011;381;48.770;9.188;2023-06-05T21:48:38;3.40;;;3.20;;
795;SDS011;381;48.770;9.188;2023-06-05T21:53:41;3.60;;;3.40;;
795;SDS011;381;48.770;9.188;2023-06-05T21:58:48;3.50;;;3.20;;
795;SDS011;381;48.770;9.188;2023-06-05T22:03:53;3.63;;;3.43;;
795;SDS011;381;48.770;9.188;2023-06-05T22:08:59;3.90;;;3.60;;
795;SDS011;381;48.770;9.188;2023-06-05T22:14:04;4.40;;;4.10;;
795;SDS011;381;48.770;9.188;2023-06-05T22:19:09;4.10;;;3.80;;
795;SDS011;381;48.770;9.188;2023-06-05T22:24:16;3.37;;;3.17;;
795;SDS011;381;48.770;9.188;2023-06-05T22:29:21;3.37;;;3.17;;
795;SDS011;381;48.770;9.188;2023-06-05T22:34:25;3.27;;;3.07;;
795;SDS011;381;48.770;9.188;2023-06-05T22:39:29;2.80;;;2.60;;
795;SDS011;381;48.770;9.188;2023-06-05T22:44:32;3.43;;;3.23;;
795;SDS011;381;48.770;9.188;2023-06-05T22:49:34;4.07;;;3.63;;
795;SDS011;381;48.770;9.188;2023-06-05T22:54:38;3.10;;;2.90;;
795;SDS011;381;48.770;9.188;2023-06-05T22:59:40;3.60;;;3.40;;
795;SDS011;381;48.770;9.188;2023-06-05T23:04:43;3.80;;;3.60;;
795;SDS011;381;48.770;9.188;2023-06-05T23:09:48;4.60;;;4.30;;
795;SDS011;381;48.770;9.188;2023-06-05T23:14:51;4.13;;;3.90;;
795;SDS011;381;48.770;9.188;2023-06-05T23:19:53;3.67;;;3.47;;
795;SDS011;381;48.770;9.188;2023-06-05T23:24:56;3.70;;;3.50;;
795;SDS011;381;48.770;9.188;2023-06-05T23:29:59;3.47;;;3.27;;
795;SDS011;381;48.770;9.188;2023-06-05T23:35:01;3.60;;;3.40;;
795;SDS011;381;48.770;9.188;2023-06-05T23:40:06;3.23;;;2.97;;
795;SDS011;381;48.770;9.188;2023-06-05T23:45:10;3.77;;;3.47;;
795;SDS011;381;48.770;9.188;2023-06-05T23:50:12;3.73;;;3.43;;
795;SDS011;381;48.770;9.188;2023-06-05T23:55:16;3.30;;;3.10;;
